Pioche, Nevada Weather observations

Data are for observation ending at time listed.
 Day   Time    Ave.   Ave.  Ave.  Vector   Max.   Stn.    Total    Solar   Ave.  
  of    of     Air    Rel.  Wind   Wind    Wind   Baro.  Precip.   Rad.    Soil  
Year   Day     Temp.  Hum.  Speed  Dir.    Gust   Pres.                    Temp. 
2026   (PST)    F      %     mph   deg.    mph     mb.     in.     W/m2     F   
------------------------------------------------------------------------------
 123    1:50   46.2    28    0.6   262      2.1   819.2    0.00       0    57.6
 123    2:00   45.5    28    0.3   207      2.0   819.2    0.00       0    57.6
 123    2:10   45.9    26    0.2   331      1.2   819.2    0.00       0    57.6
 123    2:20   46.3    27    0.1   266      1.0   819.2    0.00       0    57.6
 123    2:30   46.0    27    0.9   210      2.3   819.2    0.00       0    57.5
 123    2:40   46.2    28    1.6   160      3.3   819.2    0.00       0    57.5
 123    2:50   46.6    27    1.9   147      4.1   819.2    0.00       0    57.5
 123    3:00   46.1    26    0.4   201      1.5   819.2    0.00       0    57.5
 123    3:10   47.0    28    0.9   200      1.5   819.1    0.00       0    57.5
 123    3:20   46.9    29    0.6   179      1.8   819.1    0.00       0    57.4
 123    3:30   46.1    30    0.6   172      1.8   819.0    0.00       0    57.4
 123    3:40   45.8    39    1.0   165      2.2   818.9    0.00       0    57.4
 123    3:50   45.5    44    0.8   163      1.5   818.9    0.00       0    57.3
 123    4:00   47.0    31    1.1   155      3.6   818.8    0.00       0    57.3
 123    4:10   47.8    30    1.7   161      3.9   818.8    0.00       0    57.3
 123    4:20   47.6    28    1.3   199      2.1   818.7    0.00       0    57.2
 123    4:30   47.3    32    0.7   156      2.0   818.7    0.00       0    57.1
 123    4:40   46.5    31    0.8   152      2.5   818.7    0.00       0    57.1
 123    4:50   45.7    31    1.2   156      4.8   818.7    0.00       5    57.1
 123    5:00   46.0    29    2.1   149      4.7   818.8    0.00       9    57.1
 123    5:10   46.3    30    2.0   151      5.2   818.8    0.00      18    57.1
 123    5:20   46.5    30    2.2   152      4.7   818.9    0.00      26    57.0
 123    5:30   48.0    28    2.3   150      4.8   818.9    0.00      32    57.0
 123    5:40   48.7    28    1.9   152      4.2   818.9    0.00      55    57.0
 123    5:50   49.9    29    1.6   165      4.2   819.0    0.00      78    57.0
 123    6:00   51.6    28    0.8   158      2.2   819.0    0.00     132    57.0
 123    6:10   53.9    26    0.1   141      0.7   819.1    0.00     160    56.9
 123    6:20   56.2    27    0.7   344      1.5   819.1    0.00     173    56.9
 123    6:30   56.3    28    0.4   344      1.8   819.2    0.00     142    56.9
 123    6:40   55.4    27    1.0   326      1.5   819.3    0.00     232    56.9
 123    6:50   56.9    26    1.3   318      2.6   819.3    0.00     316    56.8
 123    7:00   56.8    26    2.0   309      3.1   819.3    0.00     262    56.8
 123    7:10   57.0    25    1.3   308      3.4   819.4    0.00     308    56.8
 123    7:20   58.6    23    0.7   328      2.4   819.4    0.00     477    56.9
 123    7:30   60.0    20    1.0    62      2.6   819.4    0.00     379    56.9
 123    7:40   59.9    20    1.9    78      3.5   819.4    0.00     485    56.8
 123    7:50   63.1    17    0.8    63      2.0   819.4    0.00     666    56.8
 123    8:00   64.4    13    3.5   157      8.6   819.4    0.00     713    56.8
 123    8:10   64.3    13    4.7   132      7.7   819.5    0.00     758    56.8
 123    8:20   64.1    13    5.2   134     10.1   819.5    0.00     782    56.8
 123    8:30   64.5    13    4.0   118      7.7   819.5    0.00     758    56.8
 123    8:40   64.9    13    4.8   116     11.5   819.5    0.00     869    56.9
 123    8:50   65.4    13    5.2   126     11.8   819.5    0.00     919    56.9
 123    9:00   65.8    14    5.4   120     10.2   819.4    0.00     700    56.9
 123    9:10   65.8    14    5.3   127      9.2   819.4    0.00     837    56.8
 123    9:20   65.8    14    5.7   127     12.3   819.4    0.00     787    56.8
 123    9:30   66.5    14    5.5   130     11.5   819.4    0.00     950    56.8
 123    9:40   67.4    14    5.0   144     11.5   819.3    0.00     998    56.8
 123    9:50   68.3    13    4.4   136     10.2   819.2    0.00    1007    56.8
 123   10:00   67.8    13    8.6   104     16.1   819.1    0.00    1021    56.8
 123   10:10   67.4    13    7.7   109     15.5   819.0    0.00    1039    56.8
 123   10:20   67.8    13   11.4   110     18.4   818.9    0.00    1054    56.8
 123   10:30   68.5    13    6.2   133     15.1   818.8    0.00    1067    56.8
 123   10:40   69.2    13    6.1   134     15.6   818.7    0.00    1079    56.8
 123   10:50   68.8    13    8.2   129     15.9   818.5    0.00    1093    56.8
 123   11:00   69.3    12    6.4   136     14.4   818.4    0.00    1104    56.9
 123   11:10   69.1    12    7.4   105     16.7   818.2    0.00    1108    56.9
 123   11:20   69.8    12    6.6   116     16.4   818.0    0.00    1126    56.9
 123   11:30   70.9    12    5.2   143     11.6   817.8    0.00     879    57.0
 123   11:40   70.1    12    8.1   135     17.0   817.8    0.00    1109    57.0
 123   11:50   69.8    12    8.3   146     20.0   817.6    0.00     480    57.1
 123   12:00   70.5    12    5.1   142     11.6   817.5    0.00    1146    57.2
 123   12:10   70.7    12    6.9   149     16.1   817.4    0.00    1030    57.2
 123   12:20   70.6    13    7.1   143     18.8   817.2    0.00    1030    57.3
 123   12:30   71.5    13    8.9   128     17.9   817.2    0.00    1233    57.3
 123   12:40   71.7    13    7.3    98     14.5   817.0    0.00    1156    57.4
 123   12:50   71.8    12    8.3   129     17.0   816.9    0.00    1188    57.5
 123   13:00   72.1    13    7.7   129     17.5   816.8    0.00    1109    57.5
 123   13:10   70.7    13    7.9   114     17.2   816.6    0.00     825    57.6
 123   13:20   71.2    13    5.6   129     13.2   816.5    0.00    1029    57.7
 123   13:30   71.4    13    5.3   121     11.3   816.3    0.00     344    57.7
 123   13:40   70.4    13    6.1   143     12.2   816.2    0.00     261    57.8
 123   13:50   69.7    13    7.1   104     14.6   816.0    0.00     633    57.8
 123   14:00   72.0    12    7.6   109     16.5   815.7    0.00     993    58.0
 123   14:10   71.5    12    7.4   130     14.9   815.7    0.00     985    58.1
 123   14:20   72.2    12    5.5   118     12.8   815.5    0.00     982    58.1
 123   14:30   71.9    12    9.8   122     19.4   815.4    0.00     870    58.2
 123   14:40   71.7    12    7.9   151     18.7   815.3    0.00     694    58.3
 123   14:50   71.3    12    4.4   139     11.1   815.1    0.00     154    58.4
 123   15:00   71.0    13    9.1   130     24.6   815.0    0.00     112    58.4
 123   15:10   70.8    12    6.7   146     15.9   814.9    0.00      74    58.5
 123   15:20   70.7    13    6.6   156     15.3   814.8    0.00      68    58.6
 123   15:30   70.4    12    8.0   142     16.2   814.7    0.00      69    58.7
 123   15:40   70.3    13    6.3   144     14.5   814.6    0.00      96    58.8
 123   15:50   70.2    13    6.4   148     15.7   814.5    0.00     111    58.9
 123   16:00   70.3    13    8.8   126     17.5   814.4    0.00      96    58.9
 123   16:10   70.1    13    8.2   128     14.9   814.4    0.00     136    59.0
 123   16:20   69.8    15   13.1   111     23.9   814.3    0.00     126    59.1
 123   16:30   68.6    16   10.4   113     19.2   814.3    0.00      98    59.1
 123   16:40   68.7    16    9.1   112     16.9   814.2    0.00      98    59.2
 123   16:50   68.5    16    7.9   118     16.0   814.2    0.00      93    59.3
 123   17:00   68.4    16    6.6   117     13.6   814.2    0.00      90    59.3
 123   17:10   68.4    16    4.8   117      9.6   814.2    0.00      82    59.4
 123   17:20   68.1    15    6.1   122     13.3   814.1    0.00      66    59.5
 123   17:30   67.9    15    5.8   126     12.0   814.1    0.00      36    59.5
 123   17:40   67.1    16    7.3   184     13.0   814.3    0.00      20    59.5
 123   17:50   66.1    18    7.9   147     16.8   814.4    0.00      19    59.6
 123   18:00   65.2    20    7.4   144     20.0   814.4    0.00      13    59.6
 123   18:10   64.5    21    5.5   179     14.3   814.4    0.00       9    59.6
 123   18:20   63.9    22    4.2   172      7.9   814.4    0.00       6    59.7
 123   18:30   63.7    22    5.8   143     11.2   814.4    0.00       2    59.7
 123   18:40   63.6    22    3.9   143      8.8   814.5    0.00       0    59.7
 123   18:50   63.3    22    7.8   128     19.5   814.8    0.00       0    59.8
 123   19:00   62.3    26    9.3   138     23.6   815.2    0.00       0    59.8
 123   19:10   61.5    28    8.8   138     18.3   815.4    0.00       0    59.8
 123   19:20   61.5    27    5.4    98     10.1   815.3    0.00       0    59.8
 123   19:30   60.6    30    6.1    94     12.8   815.4    0.00       0    59.8
 123   19:40   59.7    32    4.4   104      6.6   815.4    0.00       0    59.9
 123   19:50   59.8    32    5.3   113      9.1   815.6    0.00       0    59.9
 123   20:00   60.3    31    6.4   121     10.5   815.8    0.00       0    59.9
 123   20:10   60.1    32    1.7    82      4.7   815.4    0.00       0    59.9
 123   20:20   59.7    33    3.5    92      5.1   815.4    0.00       0    59.9
 123   20:30   59.1    34    4.9   118      7.7   815.6    0.00       0    60.0
 123   20:40   59.3    33    4.4   119      6.9   815.9    0.00       0    60.0
 123   20:50   59.0    35    5.6   115     11.3   816.0    0.00       0    60.0
 123   21:00   58.6    36    5.8   125      9.5   816.0    0.00       0    60.0
 123   21:10   58.2    37    3.3   105      6.4   815.9    0.00       0    60.0
 123   21:20   57.9    38    3.4   102      5.7   815.8    0.00       0    60.0
 123   21:30   57.2    40    3.3    91      4.7   815.8    0.00       0    59.9
 123   21:40   57.3    40    3.3   118      5.4   815.8    0.00       0    60.0
 123   21:50   57.5    39    3.0   116      5.0   815.7    0.00       0    59.9
 123   22:00   57.2    39    3.5   112      5.3   815.7    0.00       0    60.0
 123   22:10   57.2    39    4.7   111      7.9   815.6    0.00       0    60.0
 123   22:20   57.2    39    4.1   102      6.8   815.6    0.00       0    60.0
 123   22:30   57.2    39    3.7    98      5.6   815.4    0.00       0    60.0
 123   22:40   57.0    39    2.8   103      4.5   815.3    0.00       0    60.0
 123   22:50   57.0    39    2.4   115      5.4   815.3    0.00       0    60.0
 123   23:00   56.9    39    2.2   119      3.9   815.5    0.00       0    59.9
 123   23:10   56.9    39    0.5   128      1.8   815.3    0.00       0    60.0
 123   23:20   56.3    42    0.2   129      0.9   815.4    0.00       0    59.9
 123   23:30   55.2    44    0.4   206      1.5   815.4    0.00       0    59.9
 123   23:40   54.2    47    0.5   255      1.6   815.2    0.00       0    60.0
 123   23:50   53.4    47    1.3   158      2.9   815.1    0.00       0    59.9
 124    0:00   53.8    46    0.9   151      2.0   815.1    0.00       0    59.9
 124    0:10   53.3    46    0.5   197      1.5   815.2    0.00       0    59.9
 124    0:20   52.0    49    0.6   174      2.5   815.1    0.00       0    59.9
 124    0:30   51.5    50    2.4   143      4.1   814.9    0.00       0    59.9
 124    0:40   51.7    48    1.9   161      4.9   814.9    0.00       0    59.9
 124    0:50   51.7    49    1.8   145      4.7   814.8    0.00       0    59.9
 124    1:00   51.4    50    0.3   203      2.4   814.7    0.00       0    59.8
 124    1:10   50.5    51    1.4   186      2.8   814.7    0.00       0    59.8
 124    1:20   51.3    49    2.7   147      4.1   814.7    0.00       0    59.8
 124    1:30   51.5    48    0.6   153      2.3   814.7    0.00       0    59.8
 124    1:40   50.6    50    0.9   179      2.4   814.6    0.00       0    59.8

Return to Pioche, Nevada graphs page.


Western Regional Climate Center,wrcc@dri.edu